createdAt,value
2019-04-05T00:00:16.707Z,9.70
2019-04-05T00:02:46.158Z,9.70
2019-04-05T00:05:15.322Z,9.60
2019-04-05T00:07:44.870Z,9.60
2019-04-05T00:10:15.008Z,9.60
2019-04-05T00:12:44.293Z,9.50
2019-04-05T00:15:16.076Z,9.50
2019-04-05T00:17:44.835Z,9.50
2019-04-05T00:20:16.400Z,9.40
2019-04-05T00:22:45.578Z,9.40
2019-04-05T00:25:15.269Z,9.40
2019-04-05T00:27:44.489Z,9.40
2019-04-05T00:30:14.836Z,9.30
2019-04-05T00:32:43.996Z,9.30
2019-04-05T00:35:13.514Z,9.30
2019-04-05T00:37:43.038Z,9.30
2019-04-05T00:40:13.222Z,9.30
2019-04-05T00:42:42.387Z,9.30
2019-04-05T00:45:12.697Z,9.20
2019-04-05T00:47:42.180Z,9.20
2019-04-05T00:50:12.908Z,9.10
2019-04-05T00:52:42.166Z,9.10
2019-04-05T00:55:11.670Z,9.00
2019-04-05T00:57:41.998Z,9.00
2019-04-05T01:00:13.019Z,9.00
2019-04-05T01:02:42.478Z,9.00
2019-04-05T01:05:11.848Z,9.00
2019-04-05T01:07:41.246Z,9.00
2019-04-05T01:10:10.882Z,9.00
2019-04-05T01:12:40.535Z,9.00
2019-04-05T01:15:11.906Z,9.00
2019-04-05T01:17:41.998Z,8.90
2019-04-05T01:20:13.409Z,9.00
2019-04-05T01:22:44.703Z,8.90
2019-04-05T01:25:14.610Z,9.00
2019-04-05T01:27:44.025Z,8.90
2019-04-05T01:30:15.256Z,8.90
2019-04-05T01:32:44.717Z,8.80
2019-04-05T01:35:13.933Z,8.90
2019-04-05T01:37:43.719Z,8.90
2019-04-05T01:40:13.229Z,8.80
2019-04-05T01:42:43.130Z,8.90
2019-04-05T01:45:13.934Z,8.80
2019-04-05T01:47:43.410Z,8.90
2019-04-05T01:50:12.899Z,8.80
2019-04-05T01:52:43.240Z,8.90
2019-04-05T01:55:13.905Z,8.90
2019-04-05T01:57:43.080Z,8.80
2019-04-05T02:00:12.966Z,8.80
2019-04-05T02:02:42.867Z,8.80
2019-04-05T02:05:13.219Z,8.80
2019-04-05T02:07:42.504Z,8.80
2019-04-05T02:10:12.621Z,8.70
2019-04-05T02:12:42.283Z,8.80
2019-04-05T02:15:14.771Z,8.70
2019-04-05T02:17:45.300Z,8.80
2019-04-05T02:20:14.901Z,8.80
2019-04-05T02:22:44.457Z,8.80
2019-04-05T02:25:13.916Z,8.70
2019-04-05T02:27:43.584Z,8.70
2019-04-05T02:30:13.592Z,8.70
2019-04-05T02:32:42.890Z,8.60
2019-04-05T02:35:13.862Z,8.60
2019-04-05T02:37:43.401Z,8.50
2019-04-05T02:40:15.802Z,8.50
2019-04-05T02:42:47.708Z,8.40
2019-04-05T02:45:18.850Z,8.30
2019-04-05T02:47:54.326Z,8.30
2019-04-05T02:50:26.671Z,8.30
2019-04-05T02:52:59.058Z,8.30
2019-04-05T02:55:29.556Z,8.30
2019-04-05T02:58:00.243Z,8.30
2019-04-05T03:00:31.036Z,8.20
2019-04-05T03:03:04.207Z,8.20
2019-04-05T03:05:34.561Z,8.20
2019-04-05T03:08:05.710Z,8.10
2019-04-05T03:10:53.059Z,8.10
2019-04-05T03:13:24.407Z,8.10
2019-04-05T03:15:56.482Z,8.00
2019-04-05T03:18:28.734Z,8.00
2019-04-05T03:21:02.302Z,8.00
2019-04-05T03:23:34.868Z,8.00
2019-04-05T03:26:07.618Z,8.00
2019-04-05T03:28:39.868Z,7.90
2019-04-05T03:31:10.541Z,7.90
2019-04-05T03:33:40.445Z,7.90
2019-04-05T03:36:10.770Z,7.90
2019-04-05T03:38:41.143Z,7.90
2019-04-05T03:41:10.909Z,7.80
2019-04-05T03:43:40.967Z,7.80
2019-04-05T03:46:10.786Z,7.80
2019-04-05T03:48:40.123Z,7.80
2019-04-05T03:51:10.476Z,7.80
2019-04-05T03:53:40.154Z,7.70
2019-04-05T03:56:10.808Z,7.70
2019-04-05T03:58:40.112Z,7.70
2019-04-05T04:01:10.230Z,7.60
2019-04-05T04:03:39.574Z,7.60
2019-04-05T04:06:09.035Z,7.60
2019-04-05T04:08:39.710Z,7.60
2019-04-05T04:11:09.652Z,7.60
2019-04-05T04:13:39.845Z,7.60
2019-04-05T04:16:09.424Z,7.60
2019-04-05T04:18:39.793Z,7.60
2019-04-05T04:21:28.172Z,7.60
2019-04-05T04:23:58.002Z,7.60
2019-04-05T04:26:27.505Z,7.60
2019-04-05T04:28:58.664Z,7.60
2019-04-05T04:31:28.610Z,7.60
2019-04-05T04:33:58.531Z,7.60
2019-04-05T04:36:28.399Z,7.60
2019-04-05T04:38:58.310Z,7.70
2019-04-05T04:41:27.534Z,7.70
2019-04-05T04:43:57.758Z,7.70
2019-04-05T04:46:28.516Z,7.70
2019-04-05T04:48:58.915Z,7.70
2019-04-05T04:51:29.558Z,7.70
2019-04-05T04:53:59.924Z,7.80
2019-04-05T04:56:29.443Z,7.80
2019-04-05T04:58:59.335Z,7.80
2019-04-05T05:01:31.339Z,7.90
2019-04-05T05:04:01.583Z,7.90
2019-04-05T05:06:31.479Z,7.90
2019-04-05T05:09:01.353Z,7.90
2019-04-05T05:11:30.737Z,8.00
2019-04-05T05:14:00.438Z,8.00
2019-04-05T05:16:30.113Z,8.10
2019-04-05T05:19:00.263Z,8.10
2019-04-05T05:21:30.154Z,8.10
2019-04-05T05:23:59.695Z,8.20
2019-04-05T05:26:29.959Z,8.30
2019-04-05T05:28:59.403Z,8.30
2019-04-05T05:31:28.921Z,8.30
2019-04-05T05:33:58.392Z,8.30
2019-04-05T05:36:28.043Z,8.40
2019-04-05T05:38:57.596Z,8.50
2019-04-05T05:41:27.165Z,8.50
2019-04-05T05:43:56.772Z,8.60
2019-04-05T05:46:26.075Z,8.60
2019-04-05T05:48:55.939Z,8.60
2019-04-05T05:51:25.845Z,8.60
2019-04-05T05:53:55.131Z,8.70
2019-04-05T05:56:24.834Z,8.80
2019-04-05T05:58:58.846Z,8.90
2019-04-05T06:01:25.181Z,8.90
2019-04-05T06:03:54.724Z,9.00
2019-04-05T06:06:25.021Z,9.10
2019-04-05T06:08:55.595Z,9.10
2019-04-05T06:11:25.178Z,9.20
2019-04-05T06:13:54.331Z,9.40
2019-04-05T06:16:23.839Z,9.40
2019-04-05T06:18:53.058Z,9.50
2019-04-05T06:21:22.402Z,9.60
2019-04-05T06:23:51.747Z,9.70
2019-04-05T06:26:20.989Z,9.80
2019-04-05T06:28:50.619Z,9.80
2019-04-05T06:31:20.464Z,10.00
2019-04-05T06:33:49.933Z,10.00
2019-04-05T06:36:19.104Z,10.00
2019-04-05T06:38:48.714Z,10.00
2019-04-05T06:41:18.095Z,10.20
2019-04-05T06:43:47.673Z,10.30
2019-04-05T06:46:17.091Z,10.50
2019-04-05T06:48:46.535Z,10.60
2019-04-05T06:51:18.574Z,11.00
2019-04-05T06:53:48.131Z,11.50
2019-04-05T06:56:17.529Z,12.10
2019-04-05T06:58:47.105Z,12.50
2019-04-05T07:01:16.720Z,12.90
2019-04-05T07:03:46.036Z,13.00
2019-04-05T07:06:15.195Z,13.40
2019-04-05T07:08:53.743Z,13.80
2019-04-05T07:11:15.777Z,14.00
2019-04-05T07:13:45.005Z,14.40
2019-04-05T07:16:14.417Z,14.70
2019-04-05T07:18:43.877Z,15.20
2019-04-05T07:21:13.047Z,16.10
2019-04-05T07:23:42.585Z,16.70
2019-04-05T07:26:13.215Z,16.80
2019-04-05T07:28:42.387Z,16.80
2019-04-05T07:31:12.071Z,17.40
2019-04-05T07:33:41.318Z,17.60
2019-04-05T07:36:10.668Z,17.80
2019-04-05T07:38:39.960Z,18.20
2019-04-05T07:41:09.425Z,18.20
2019-04-05T07:43:38.585Z,18.30
2019-04-05T07:46:08.231Z,18.50
2019-04-05T07:48:44.672Z,18.70
2019-04-05T07:51:08.674Z,19.10
2019-04-05T07:53:38.246Z,19.00
2019-04-05T07:56:07.753Z,19.30
2019-04-05T07:58:37.205Z,19.30
2019-04-05T08:01:06.735Z,19.40
2019-04-05T08:03:36.381Z,19.50
2019-04-05T08:06:05.858Z,19.70
2019-04-05T08:08:56.417Z,19.80
2019-04-05T08:11:27.731Z,19.50
2019-04-05T08:14:00.074Z,19.40
2019-04-05T08:16:29.650Z,19.60
2019-04-05T08:18:59.442Z,19.90
2019-04-05T08:21:29.019Z,19.90
2019-04-05T08:23:58.574Z,20.50
2019-04-05T08:26:28.033Z,20.60
2019-04-05T08:28:57.677Z,21.10
2019-04-05T08:31:27.196Z,21.30
2019-04-05T08:33:56.696Z,22.00
2019-04-05T08:36:26.050Z,21.80
2019-04-05T08:38:55.397Z,22.50
2019-04-05T08:41:24.815Z,22.90
2019-04-05T08:43:54.231Z,22.70
2019-04-05T08:46:23.850Z,22.60
2019-04-05T08:48:53.214Z,22.30
2019-04-05T08:51:22.607Z,21.40
2019-04-05T08:53:51.872Z,21.40
2019-04-05T08:56:21.218Z,21.60
2019-04-05T08:58:50.498Z,21.70
2019-04-05T09:01:19.822Z,21.80
2019-04-05T09:03:49.185Z,22.20
2019-04-05T09:06:18.468Z,21.80
2019-04-05T09:08:47.861Z,22.00
2019-04-05T09:11:17.149Z,22.20
2019-04-05T09:13:46.519Z,22.50
2019-04-05T09:16:15.970Z,22.80
2019-04-05T09:18:49.310Z,23.20
2019-04-05T09:21:17.888Z,23.20
2019-04-05T09:23:47.349Z,23.30
2019-04-05T09:26:16.631Z,23.60
2019-04-05T09:28:45.948Z,24.00
2019-04-05T09:31:15.295Z,24.30
2019-04-05T09:33:44.579Z,23.90
2019-04-05T09:36:13.991Z,24.20
2019-04-05T09:38:43.351Z,24.20
2019-04-05T09:41:12.652Z,24.00
2019-04-05T09:43:41.940Z,23.90
2019-04-05T09:46:11.436Z,23.70
2019-04-05T09:48:40.788Z,23.40
2019-04-05T09:51:10.398Z,23.10
2019-04-05T09:53:39.719Z,23.00
2019-04-05T09:56:09.219Z,22.90
2019-04-05T09:58:38.625Z,22.70
2019-04-05T10:01:08.026Z,22.90
2019-04-05T10:03:37.385Z,23.10
2019-04-05T10:06:06.791Z,23.20
2019-04-05T10:08:36.126Z,23.40
2019-04-05T10:11:05.763Z,23.10
2019-04-05T10:13:35.047Z,23.40
2019-04-05T10:16:04.448Z,23.80
2019-04-05T10:18:33.732Z,24.00
2019-04-05T10:21:03.076Z,23.50
2019-04-05T10:23:32.399Z,23.60
2019-04-05T10:26:01.672Z,23.30
2019-04-05T10:28:30.951Z,23.00
2019-04-05T10:31:00.422Z,22.90
2019-04-05T10:33:30.775Z,23.30
2019-04-05T10:36:00.051Z,23.40
2019-04-05T10:38:29.367Z,22.90
2019-04-05T10:40:58.647Z,22.70
2019-04-05T10:43:27.995Z,22.50
2019-04-05T10:45:57.318Z,22.00
2019-04-05T10:48:26.638Z,21.90
2019-04-05T10:50:56.079Z,22.00
2019-04-05T10:53:25.395Z,22.40
2019-04-05T10:55:54.671Z,23.00
2019-04-05T10:58:24.321Z,23.00
2019-04-05T11:00:54.224Z,22.70
2019-04-05T11:03:24.428Z,22.90
2019-04-05T11:05:53.996Z,22.80
2019-04-05T11:08:23.558Z,22.40
2019-04-05T11:10:53.063Z,22.40
2019-04-05T11:13:22.614Z,21.60
2019-04-05T11:15:52.015Z,22.00
2019-04-05T11:18:21.534Z,22.40
2019-04-05T11:20:50.904Z,21.80
2019-04-05T11:23:21.392Z,21.60
2019-04-05T11:25:51.964Z,21.60
2019-04-05T11:28:21.129Z,21.90
2019-04-05T11:30:50.737Z,22.20
2019-04-05T11:33:20.464Z,22.00
2019-04-05T11:35:50.412Z,21.90
2019-04-05T11:38:24.098Z,21.50
2019-04-05T11:40:53.873Z,21.40
2019-04-05T11:43:26.949Z,21.60
2019-04-05T11:45:56.566Z,21.70
2019-04-05T11:48:25.929Z,21.50
2019-04-05T11:50:58.032Z,21.30
2019-04-05T11:53:27.586Z,21.40
2019-04-05T11:55:56.743Z,21.50
2019-04-05T11:58:26.299Z,21.50
2019-04-05T12:01:00.095Z,21.50
2019-04-05T12:03:30.941Z,21.50
2019-04-05T12:06:00.487Z,21.30
2019-04-05T12:08:29.930Z,21.40
2019-04-05T12:10:59.105Z,21.50
2019-04-05T12:13:28.588Z,21.30
2019-04-05T12:15:58.403Z,21.20
2019-04-05T12:18:27.953Z,21.30
2019-04-05T12:21:00.357Z,21.30
2019-04-05T12:23:28.212Z,21.30
2019-04-05T12:25:58.111Z,21.10
2019-04-05T12:28:27.397Z,21.00
2019-04-05T12:30:56.914Z,20.80
2019-04-05T12:33:26.142Z,21.00
2019-04-05T12:35:56.685Z,21.20
2019-04-05T12:38:48.366Z,21.30
2019-04-05T12:41:18.308Z,21.20
2019-04-05T12:43:50.645Z,21.30
2019-04-05T12:46:18.743Z,21.20
2019-04-05T12:48:48.292Z,21.20
2019-04-05T12:51:17.438Z,21.20
2019-04-05T12:53:46.834Z,20.90
2019-04-05T12:56:16.042Z,20.70
2019-04-05T12:58:45.443Z,20.80
2019-04-05T13:01:14.670Z,21.00
2019-04-05T13:03:44.087Z,21.10
2019-04-05T13:06:13.557Z,21.20
2019-04-05T13:08:42.800Z,21.30
2019-04-05T13:11:13.085Z,21.40
2019-04-05T13:13:42.326Z,21.30
2019-04-05T13:16:11.735Z,21.20
2019-04-05T13:18:40.932Z,21.20
2019-04-05T13:21:15.035Z,21.30
2019-04-05T13:23:41.727Z,21.30
2019-04-05T13:26:12.231Z,21.20
2019-04-05T13:28:42.259Z,21.10
2019-04-05T13:31:11.714Z,21.10
2019-04-05T13:33:41.023Z,21.00
2019-04-05T13:36:12.124Z,21.00
2019-04-05T13:38:54.009Z,21.00
2019-04-05T13:41:13.644Z,21.10
2019-04-05T13:43:43.126Z,21.40
2019-04-05T13:46:21.741Z,21.50
2019-04-05T13:48:43.773Z,21.30
2019-04-05T13:51:13.262Z,21.00
2019-04-05T13:53:42.433Z,21.00
2019-04-05T13:56:12.071Z,21.00
2019-04-05T13:58:41.632Z,21.20
2019-04-05T14:01:11.433Z,21.20
2019-04-05T14:03:40.847Z,21.20
2019-04-05T14:06:10.851Z,21.20
2019-04-05T14:08:41.817Z,21.20
2019-04-05T14:11:12.129Z,21.20
2019-04-05T14:13:42.985Z,21.30
2019-04-05T14:16:13.001Z,21.40
2019-04-05T14:18:49.344Z,21.20
2019-04-05T14:21:13.871Z,21.10
2019-04-05T14:23:43.380Z,21.10
2019-04-05T14:26:12.758Z,21.10
2019-04-05T14:28:41.975Z,21.10
2019-04-05T14:31:11.301Z,21.00
2019-04-05T14:33:40.621Z,20.80
2019-04-05T14:36:10.404Z,20.90
2019-04-05T14:38:39.681Z,20.90
2019-04-05T14:41:09.133Z,20.80
2019-04-05T14:43:38.301Z,20.80
2019-04-05T14:46:07.840Z,20.60
2019-04-05T14:48:37.317Z,20.60
2019-04-05T14:51:06.706Z,20.50
2019-04-05T14:53:35.933Z,20.30
2019-04-05T14:56:05.426Z,20.40
2019-04-05T14:58:34.807Z,20.40
2019-04-05T15:01:04.118Z,20.20
2019-04-05T15:03:34.347Z,20.10
2019-04-05T15:06:03.801Z,20.00
2019-04-05T15:08:33.234Z,19.90
2019-04-05T15:11:02.510Z,19.90
2019-04-05T15:13:31.851Z,19.80
2019-04-05T15:16:01.081Z,19.70
2019-04-05T15:18:30.494Z,19.70
2019-04-05T15:21:00.334Z,19.60
2019-04-05T15:23:29.519Z,19.70
2019-04-05T15:25:59.161Z,19.70
2019-04-05T15:28:28.480Z,19.60
2019-04-05T15:30:57.701Z,19.50
2019-04-05T15:33:27.763Z,19.30
2019-04-05T15:36:02.211Z,19.30
2019-04-05T15:38:31.321Z,19.20
2019-04-05T15:41:00.541Z,19.20
2019-04-05T15:43:30.011Z,19.20
2019-04-05T15:45:59.178Z,19.30
2019-04-05T15:48:28.652Z,19.10
2019-04-05T15:50:59.274Z,19.20
2019-04-05T15:53:31.637Z,19.20
2019-04-05T15:56:03.903Z,19.10
2019-04-05T15:58:34.026Z,19.00
2019-04-05T16:01:04.440Z,18.80
2019-04-05T16:03:36.979Z,18.70
2019-04-05T16:06:06.126Z,18.60
2019-04-05T16:08:35.301Z,18.50
2019-04-05T16:11:05.728Z,18.40
2019-04-05T16:13:35.126Z,18.30
2019-04-05T16:16:04.368Z,18.20
2019-04-05T16:18:34.609Z,18.10
2019-04-05T16:21:04.447Z,18.00
2019-04-05T16:23:34.787Z,18.00
2019-04-05T16:26:04.382Z,17.90
2019-04-05T16:28:34.616Z,17.70
2019-04-05T16:31:04.144Z,17.60
2019-04-05T16:33:33.972Z,17.50
2019-04-05T16:36:03.269Z,17.40
2019-04-05T16:38:32.672Z,17.30
2019-04-05T16:41:02.186Z,17.20
2019-04-05T16:43:31.659Z,17.10
2019-04-05T16:46:02.931Z,17.00
2019-04-05T16:48:32.299Z,16.90
2019-04-05T16:51:01.464Z,16.80
2019-04-05T16:53:31.606Z,16.80
2019-04-05T16:56:00.829Z,16.70
2019-04-05T16:58:29.984Z,16.60
2019-04-05T17:00:59.473Z,16.50
2019-04-05T17:03:29.004Z,16.40
2019-04-05T17:05:58.516Z,16.40
2019-04-05T17:08:28.058Z,16.30
2019-04-05T17:10:57.444Z,16.20
2019-04-05T17:13:26.682Z,16.10
2019-04-05T17:15:56.155Z,16.10
2019-04-05T17:18:25.549Z,16.00
2019-04-05T17:20:54.730Z,15.90
2019-04-05T17:23:24.191Z,15.90
2019-04-05T17:25:53.342Z,15.90
2019-04-05T17:28:22.505Z,15.80
2019-04-05T17:30:51.785Z,15.70
2019-04-05T17:33:21.017Z,15.70
2019-04-05T17:35:50.187Z,15.60
2019-04-05T17:38:19.398Z,15.60
2019-04-05T17:40:49.326Z,15.50
2019-04-05T17:43:18.541Z,15.50
2019-04-05T17:45:47.817Z,15.40
2019-04-05T17:48:16.969Z,15.40
2019-04-05T17:50:46.144Z,15.30
2019-04-05T17:53:15.610Z,15.20
2019-04-05T17:55:45.350Z,15.20
2019-04-05T17:58:16.388Z,15.10
2019-04-05T18:00:46.000Z,15.20
2019-04-05T18:03:15.846Z,15.10
2019-04-05T18:05:45.102Z,15.10
2019-04-05T18:08:14.642Z,15.00
2019-04-05T18:10:43.794Z,15.00
2019-04-05T18:13:12.953Z,14.90
2019-04-05T18:15:51.924Z,14.90
2019-04-05T18:18:13.222Z,14.80
2019-04-05T18:20:43.556Z,14.80
2019-04-05T18:23:24.334Z,14.60
2019-04-05T18:25:43.612Z,14.60
2019-04-05T18:28:12.780Z,14.60
2019-04-05T18:30:42.055Z,14.60
2019-04-05T18:33:11.486Z,14.50
2019-04-05T18:35:40.658Z,14.50
2019-04-05T18:38:10.054Z,14.40
2019-04-05T18:40:40.545Z,14.40
2019-04-05T18:43:10.425Z,14.40
2019-04-05T18:45:39.647Z,14.30
2019-04-05T18:48:08.870Z,14.20
2019-04-05T18:50:38.119Z,14.20
2019-04-05T18:53:07.773Z,14.10
2019-04-05T18:55:37.087Z,14.10
2019-04-05T18:58:06.331Z,14.10
2019-04-05T19:00:35.726Z,14.00
2019-04-05T19:03:05.199Z,14.00
2019-04-05T19:05:34.367Z,13.90
2019-04-05T19:08:03.907Z,13.90
2019-04-05T19:10:37.362Z,13.90
2019-04-05T19:13:04.836Z,13.80
2019-04-05T19:15:34.043Z,13.80
2019-04-05T19:18:03.594Z,13.70
2019-04-05T19:20:32.964Z,13.70
2019-04-05T19:23:02.520Z,13.70
2019-04-05T19:25:33.605Z,13.70
2019-04-05T19:28:02.846Z,13.70
2019-04-05T19:50:45.768Z,13.30
2019-04-05T19:53:14.990Z,13.30
2019-04-05T19:55:44.507Z,13.20
2019-04-05T19:58:13.981Z,13.20
2019-04-05T20:00:43.205Z,13.10
2019-04-05T20:03:12.781Z,13.10
2019-04-05T20:05:42.166Z,13.00
2019-04-05T20:08:12.460Z,13.00
2019-04-05T20:10:41.946Z,12.90
2019-04-05T20:13:11.493Z,12.80
2019-04-05T20:15:41.748Z,12.80
2019-04-05T20:18:10.955Z,12.80
2019-04-05T20:20:43.201Z,12.70
2019-04-05T20:23:12.689Z,12.70
2019-04-05T20:25:43.073Z,12.70
2019-04-05T20:28:12.826Z,12.70
2019-04-05T20:30:43.279Z,12.60
2019-04-05T20:33:12.538Z,12.50
2019-04-05T20:35:41.873Z,12.40
2019-04-05T20:38:12.375Z,12.40
2019-04-05T20:40:42.553Z,12.40
2019-04-05T20:43:12.105Z,12.40
2019-04-05T20:45:41.616Z,12.30
2019-04-05T20:48:10.817Z,12.30
2019-04-05T20:50:40.999Z,12.30
2019-04-05T20:53:10.735Z,12.30
2019-04-05T20:55:41.233Z,12.30
2019-04-05T20:58:10.899Z,12.30
2019-04-05T21:00:40.215Z,12.20
2019-04-05T21:03:12.238Z,12.10
2019-04-05T21:05:41.670Z,12.00
2019-04-05T21:08:10.940Z,12.00
2019-04-05T21:10:40.322Z,12.00
2019-04-05T21:13:09.881Z,12.00
2019-04-05T21:15:39.297Z,11.90
2019-04-05T21:18:10.763Z,11.90
2019-04-05T21:20:44.114Z,11.90
2019-04-05T21:23:13.548Z,11.90
2019-04-05T21:25:42.755Z,11.90
2019-04-05T21:28:16.241Z,11.90
2019-04-05T21:30:46.571Z,11.90
2019-04-05T21:33:15.784Z,11.80
2019-04-05T21:35:46.214Z,11.80
2019-04-05T21:38:16.429Z,11.80
2019-04-05T21:40:45.883Z,11.80
2019-04-05T21:43:15.310Z,11.90
2019-04-05T21:45:44.488Z,11.80
2019-04-05T21:48:14.038Z,11.80
2019-04-05T21:50:43.587Z,11.70
2019-04-05T21:53:12.975Z,11.80
2019-04-05T21:55:42.539Z,11.80
2019-04-05T21:58:12.287Z,11.70
2019-04-05T22:00:44.321Z,11.70
2019-04-05T22:03:14.694Z,11.70
2019-04-05T22:05:44.644Z,11.60
2019-04-05T22:08:14.062Z,11.60
2019-04-05T22:10:44.440Z,11.60
2019-04-05T22:13:13.913Z,11.50
2019-04-05T22:15:43.467Z,11.50
2019-04-05T22:18:12.951Z,11.40
2019-04-05T22:20:42.399Z,11.40
2019-04-05T22:23:17.648Z,11.40
2019-04-05T22:25:46.851Z,11.40
2019-04-05T22:28:16.256Z,11.30
2019-04-05T22:30:46.587Z,11.30
2019-04-05T22:33:16.139Z,11.30
2019-04-05T22:35:45.666Z,11.30
2019-04-05T22:38:15.107Z,11.30
2019-04-05T22:40:44.642Z,11.20
2019-04-05T22:43:14.102Z,11.20
2019-04-05T22:45:48.185Z,11.20
2019-04-05T22:48:17.664Z,11.20
2019-04-05T22:50:46.834Z,11.10
2019-04-05T22:53:18.335Z,11.10
2019-04-05T22:55:48.634Z,11.00
2019-04-05T22:58:18.920Z,11.00
2019-04-05T23:00:48.077Z,11.00
2019-04-05T23:03:18.800Z,11.00
2019-04-05T23:05:48.255Z,11.00
2019-04-05T23:08:18.586Z,11.00
2019-04-05T23:10:47.783Z,10.90
2019-04-05T23:13:19.234Z,10.90
2019-04-05T23:15:48.745Z,10.90
2019-04-05T23:18:19.101Z,10.80
2019-04-05T23:20:48.567Z,10.80
2019-04-05T23:23:18.063Z,10.80
2019-04-05T23:25:48.427Z,10.80
2019-04-05T23:28:17.962Z,10.80
2019-04-05T23:30:47.431Z,10.80
2019-04-05T23:33:16.967Z,10.70
2019-04-05T23:35:46.475Z,10.80
2019-04-05T23:38:15.915Z,10.70
2019-04-05T23:40:45.182Z,10.70
2019-04-05T23:43:16.691Z,10.60
2019-04-05T23:45:46.077Z,10.60
2019-04-05T23:48:18.533Z,10.70
2019-04-05T23:50:47.771Z,10.70
2019-04-05T23:53:19.121Z,10.60
2019-04-05T23:55:48.633Z,10.50
2019-04-05T23:58:18.116Z,10.50
